Time;durP1;ratioP1;P1;durP2;ratioP2;P2;SDS_P1;SDS_P2;PMS_P1;PMS_P2;Temp;Humidity;BMP_temperature;BMP_pressure;BME280_temperature;BME280_humidity;BME280_pressure;Samples;Min_cycle;Max_cycle;Signal;HPM_P1;HPM_P2
2023/02/08 00:05:42;;;;;;;19.35;9.55;;;-1.90;99.90;;;;;;15122314;23;20173;-36
2023/02/08 00:11:44;;;;;;;17.15;9.10;;;-2.00;99.90;;;;;;15130245;23;20117;-36
2023/02/08 00:17:45;;;;;;;17.98;9.02;;;-2.00;99.90;;;;;;15129819;23;20025;-36
2023/02/08 00:23:47;;;;;;;17.20;9.43;;;-1.90;99.90;;;;;;15128044;23;20711;-36
2023/02/08 00:29:49;;;;;;;17.58;9.27;;;-2.00;99.90;;;;;;15131344;23;20575;-36
2023/02/08 00:35:56;;;;;;;18.58;9.00;;;-2.10;99.90;;;;;;15129092;23;20105;-36
2023/02/08 00:41:58;;;;;;;16.67;9.48;;;-2.10;99.90;;;;;;15129207;23;20105;-35
2023/02/08 00:48:00;;;;;;;17.58;8.82;;;-2.10;99.90;;;;;;15129221;23;20154;-35
2023/02/08 00:54:02;;;;;;;18.40;9.80;;;-2.10;99.90;;;;;;15123345;23;20030;-36
2023/02/08 01:00:05;;;;;;;16.33;8.85;;;-2.00;99.90;;;;;;15131524;23;20053;-36
2023/02/08 01:06:11;;;;;;;19.02;9.18;;;-1.90;99.90;;;;;;15101980;23;20380;-35
2023/02/08 01:12:13;;;;;;;16.67;9.73;;;-2.00;99.90;;;;;;15126778;23;20097;-36
2023/02/08 01:18:15;;;;;;;16.40;9.02;;;-2.10;99.90;;;;;;15129288;23;20121;-36
2023/02/08 01:24:17;;;;;;;17.10;8.98;;;-2.10;99.90;;;;;;15127019;23;20030;-35
2023/02/08 01:30:19;;;;;;;17.38;9.35;;;-2.10;99.90;;;;;;15121899;23;20030;-36
2023/02/08 01:36:22;;;;;;;16.73;8.98;;;-2.10;99.90;;;;;;15125963;23;20351;-36
2023/02/08 01:42:23;;;;;;;15.77;8.88;;;-2.20;99.90;;;;;;15129499;23;20101;-36
2023/02/08 01:48:34;;;;;;;15.38;9.20;;;-2.20;99.90;;;;;;15124611;23;20023;-36
2023/02/08 01:54:43;;;;;;;17.05;9.18;;;-2.00;99.90;;;;;;15125099;23;20076;-36
2023/02/08 02:00:46;;;;;;;15.40;8.40;;;-2.00;99.90;;;;;;15126027;23;20490;-36
2023/02/08 02:06:53;;;;;;;16.35;9.23;;;-2.10;99.90;;;;;;15126607;23;20037;-36
2023/02/08 02:13:01;;;;;;;13.15;7.90;;;-2.40;99.90;;;;;;15118129;23;20105;-35
2023/02/08 02:19:06;;;;;;;16.73;9.35;;;-2.50;99.90;;;;;;15130396;23;20635;-36
2023/02/08 02:25:13;;;;;;;17.55;9.77;;;-2.60;99.90;;;;;;15113630;23;20053;-36
2023/02/08 02:31:47;;;;;;;20.65;9.40;;;-2.40;99.90;;;;;;15124666;23;20026;-36
2023/02/08 02:38:15;;;;;;;17.23;9.20;;;-2.40;99.90;;;;;;15125844;23;20022;-36
2023/02/08 02:44:32;;;;;;;15.57;9.27;;;-2.40;99.90;;;;;;15124041;23;20058;-36
2023/02/08 02:50:47;;;;;;;15.20;8.98;;;-2.50;99.90;;;;;;15126969;23;20146;-36
2023/02/08 02:56:58;;;;;;;16.30;9.38;;;-2.60;99.90;;;;;;15125301;23;20146;-36
2023/02/08 03:03:00;;;;;;;19.70;10.20;;;-2.70;99.90;;;;;;15093953;23;20101;-36
2023/02/08 03:09:29;;;;;;;19.63;10.80;;;-2.70;99.90;;;;;;15124956;23;20033;-36
2023/02/08 03:15:37;;;;;;;18.17;9.43;;;-2.70;99.90;;;;;;15102661;23;20400;-36
2023/02/08 03:22:11;;;;;;;17.15;9.00;;;-2.80;99.90;;;;;;15125830;23;20414;-36
2023/02/08 03:28:37;;;;;;;18.83;9.90;;;-2.80;99.90;;;;;;15122141;23;20448;-36
2023/02/08 03:35:00;;;;;;;19.65;10.40;;;-2.80;99.90;;;;;;15122709;23;20105;-36
2023/02/08 03:41:05;;;;;;;19.50;9.65;;;-2.70;99.90;;;;;;15125688;23;20026;-36
2023/02/08 03:47:16;;;;;;;21.33;10.00;;;-2.80;99.90;;;;;;15130485;23;20032;-36
2023/02/08 03:53:21;;;;;;;18.60;9.57;;;-2.70;99.90;;;;;;15128804;23;20026;-36
2023/02/08 03:59:28;;;;;;;20.13;9.75;;;-2.70;99.90;;;;;;15125371;23;20027;-36
2023/02/08 04:05:30;;;;;;;16.98;8.82;;;-2.60;99.90;;;;;;15126932;23;20706;-36
2023/02/08 04:11:32;;;;;;;18.33;9.65;;;-2.70;99.90;;;;;;15128609;23;20026;-36
2023/02/08 04:17:34;;;;;;;17.27;9.40;;;-2.70;99.90;;;;;;15124633;23;20062;-36
2023/02/08 04:23:35;;;;;;;15.50;8.43;;;-2.90;99.90;;;;;;15127850;23;20022;-36
2023/02/08 04:29:37;;;;;;;22.42;11.13;;;-2.90;99.90;;;;;;15129099;23;20029;-36
2023/02/08 04:35:41;;;;;;;23.20;11.88;;;-2.90;99.90;;;;;;15124779;23;20351;-37
2023/02/08 04:41:42;;;;;;;22.15;11.68;;;-2.90;99.90;;;;;;15132314;23;20392;-36
2023/02/08 04:47:45;;;;;;;24.88;11.57;;;-3.10;99.90;;;;;;15130288;23;20453;-37
2023/02/08 04:53:46;;;;;;;23.13;11.45;;;-3.10;99.90;;;;;;15119165;23;20400;-36
2023/02/08 04:59:48;;;;;;;18.83;10.18;;;-3.10;99.90;;;;;;15128707;23;20018;-36
2023/02/08 05:05:57;;;;;;;16.85;8.98;;;-3.30;99.90;;;;;;15121401;23;20030;-36
2023/02/08 05:11:59;;;;;;;15.85;10.20;;;-3.40;99.90;;;;;;15129468;23;20028;-36
2023/02/08 05:18:01;;;;;;;19.83;11.05;;;-3.40;99.90;;;;;;15126395;23;20037;-36
2023/02/08 05:24:03;;;;;;;17.58;9.63;;;-3.40;99.90;;;;;;15125368;23;20034;-36
2023/02/08 05:30:06;;;;;;;19.92;9.73;;;-3.40;99.90;;;;;;15118747;23;20395;-36
2023/02/08 05:36:08;;;;;;;19.40;10.45;;;-3.40;99.90;;;;;;15091189;23;20019;-37
2023/02/08 05:42:09;;;;;;;18.65;9.82;;;-3.30;99.90;;;;;;15126500;23;20113;-36
2023/02/08 05:48:11;;;;;;;17.52;9.35;;;-3.40;99.90;;;;;;15130287;23;20029;-36
2023/02/08 05:54:13;;;;;;;16.45;8.35;;;-3.40;99.90;;;;;;15123399;23;20555;-36
2023/02/08 06:00:15;;;;;;;15.35;8.15;;;-3.40;99.90;;;;;;15102803;23;20457;-36
2023/02/08 06:06:17;;;;;;;17.10;8.30;;;-3.50;99.90;;;;;;15120644;23;20026;-36
2023/02/08 06:12:19;;;;;;;13.27;7.50;;;-3.50;99.90;;;;;;15123579;23;20026;-36
2023/02/08 06:18:21;;;;;;;15.75;8.30;;;-3.50;99.90;;;;;;15124487;23;20042;-36
2023/02/08 06:24:24;;;;;;;14.25;7.03;;;-3.50;99.90;;;;;;15122000;23;20109;-36
2023/02/08 06:30:26;;;;;;;15.02;7.63;;;-3.30;99.90;;;;;;15121024;23;20482;-36
2023/02/08 06:36:27;;;;;;;14.70;7.68;;;-3.30;99.90;;;;;;15127239;23;20066;-36
2023/02/08 06:42:29;;;;;;;13.27;7.18;;;-3.40;99.90;;;;;;15124460;23;20049;-36
2023/02/08 06:48:31;;;;;;;14.65;6.72;;;-3.30;99.90;;;;;;15124097;23;20108;-36
2023/02/08 06:54:33;;;;;;;13.18;6.80;;;-3.30;99.90;;;;;;15100096;23;20030;-36
2023/02/08 07:00:35;;;;;;;13.60;6.95;;;-3.30;99.90;;;;;;15120904;23;20074;-36
2023/02/08 07:06:37;;;;;;;12.30;6.68;;;-3.30;99.90;;;;;;15115718;23;20026;-36
2023/02/08 07:12:39;;;;;;;12.63;6.57;;;-3.30;99.90;;;;;;15123147;23;20451;-37
2023/02/08 07:18:40;;;;;;;12.65;6.88;;;-3.30;99.90;;;;;;15120448;23;20108;-36
2023/02/08 07:24:42;;;;;;;13.65;7.22;;;-3.20;99.90;;;;;;15094424;23;20026;-36
2023/02/08 07:30:44;;;;;;;12.88;6.53;;;-3.20;99.90;;;;;;15116616;23;20030;-36
2023/02/08 07:36:47;;;;;;;13.20;7.03;;;-3.00;99.90;;;;;;15125788;23;20023;-36
2023/02/08 07:42:49;;;;;;;15.23;7.63;;;-2.80;99.90;;;;;;15122696;23;20464;-36
2023/02/08 07:48:54;;;;;;;18.92;9.77;;;-2.80;99.90;;;;;;15120608;23;20101;-36
2023/02/08 07:54:56;;;;;;;20.17;9.77;;;-2.70;99.90;;;;;;15121826;23;20027;-36
2023/02/08 08:00:58;;;;;;;20.17;10.00;;;-2.90;99.90;;;;;;15119865;23;20367;-36
2023/02/08 08:07:05;;;;;;;19.25;9.48;;;-2.90;99.90;;;;;;15125297;23;20030;-36
2023/02/08 08:13:07;;;;;;;20.17;9.80;;;-2.70;99.90;;;;;;15123864;23;20026;-36
2023/02/08 08:19:09;;;;;;;20.55;9.98;;;-2.40;99.90;;;;;;15099441;23;20029;-35
2023/02/08 08:25:11;;;;;;;19.20;8.68;;;-2.20;99.90;;;;;;15097800;23;20085;-36
2023/02/08 08:31:16;;;;;;;14.77;8.48;;;-1.80;99.90;;;;;;15123229;23;20027;-36
2023/02/08 08:37:18;;;;;;;;;;;-1.50;99.90;;;;;;15123535;23;20026;-37
2023/02/08 08:43:19;;;;;;;13.18;8.00;;;-0.80;99.90;;;;;;15129894;23;20043;-36
2023/02/08 08:49:22;;;;;;;16.92;9.45;;;-0.10;99.90;;;;;;15127954;23;20174;-37
2023/02/08 08:55:26;;;;;;;38.95;18.10;;;0.10;99.90;;;;;;15125249;23;20105;-36
2023/02/08 09:01:28;;;;;;;36.53;21.83;;;0.20;99.90;;;;;;15122748;23;20018;-36
2023/02/08 09:07:33;;;;;;;33.30;18.88;;;0.20;99.90;;;;;;15122655;23;20652;-36
2023/02/08 09:13:36;;;;;;;24.63;12.05;;;0.30;99.90;;;;;;15132182;23;20058;-36
2023/02/08 09:19:38;;;;;;;18.02;10.45;;;0.30;99.90;;;;;;15125237;23;20018;-36
2023/02/08 09:25:40;;;;;;;18.45;10.43;;;0.20;99.90;;;;;;15125363;23;20114;-37
2023/02/08 09:31:42;;;;;;;19.23;10.57;;;0.30;99.90;;;;;;15126958;23;20022;-37
2023/02/08 09:37:44;;;;;;;16.65;9.85;;;0.30;99.90;;;;;;15127058;23;20018;-36
2023/02/08 09:44:20;;;;;;;20.55;11.77;;;0.60;99.90;;;;;;15102115;23;20035;-37
2023/02/08 09:50:36;;;;;;;18.02;10.73;;;0.50;99.90;;;;;;15126236;23;20172;-36
2023/02/08 09:56:40;;;;;;;17.63;10.73;;;0.50;99.90;;;;;;15129260;23;20026;-36
2023/02/08 10:02:43;;;;;;;17.08;9.73;;;0.80;99.90;;;;;;15094553;23;20325;-36
2023/02/08 10:08:49;;;;;;;15.23;9.38;;;1.10;99.90;;;;;;15099811;23;20027;-36
2023/02/08 10:15:10;;;;;;;9.90;5.93;;;1.30;99.90;;;;;;15098391;23;20381;-36
2023/02/08 10:21:32;;;;;;;11.55;6.40;;;1.60;99.90;;;;;;15118409;23;20042;-36
2023/02/08 10:27:58;;;;;;;8.25;4.30;;;1.90;99.90;;;;;;15124777;23;20022;-36
2023/02/08 10:34:10;;;;;;;6.13;3.22;;;2.60;99.90;;;;;;15125420;23;20082;-36
2023/02/08 10:40:19;;;;;;;7.88;3.78;;;3.00;99.90;;;;;;15124786;23;20049;-37
2023/02/08 10:46:30;;;;;;;6.43;3.65;;;3.40;99.90;;;;;;15123177;23;20383;-37
2023/02/08 10:52:32;;;;;;;6.22;3.03;;;3.70;99.90;;;;;;15127145;23;20026;-36
2023/02/08 10:58:35;;;;;;;5.50;3.15;;;3.80;99.90;;;;;;15096073;23;20028;-37
2023/02/08 11:05:13;;;;;;;6.60;3.58;;;4.00;99.90;;;;;;15098453;23;20033;-36
2023/02/08 11:11:15;;;;;;;8.68;3.15;;;4.40;99.90;;;;;;15120716;23;20030;-36
2023/02/08 11:17:28;;;;;;;7.28;3.47;;;4.60;99.90;;;;;;15126297;23;20030;-36
2023/02/08 11:23:32;;;;;;;6.25;3.60;;;4.70;99.90;;;;;;15114745;23;20030;-37
2023/02/08 11:29:34;;;;;;;5.73;3.40;;;4.90;99.90;;;;;;15122384;23;20031;-36
2023/02/08 11:35:36;;;;;;;5.95;3.20;;;5.00;99.90;;;;;;15123389;23;20031;-36
2023/02/08 11:41:43;;;;;;;8.32;3.60;;;5.10;99.90;;;;;;15099294;23;20022;-37
2023/02/08 11:47:46;;;;;;;5.47;3.45;;;5.10;99.90;;;;;;15124441;23;20105;-36
2023/02/08 11:53:48;;;;;;;4.50;2.72;;;5.30;99.90;;;;;;15126047;23;20023;-37
2023/02/08 12:00:08;;;;;;;10.18;3.78;;;5.80;99.90;;;;;;15122809;23;20018;-37
2023/02/08 12:06:45;;;;;;;5.15;3.00;;;5.80;99.90;;;;;;15120651;23;20435;-37
2023/02/08 12:13:02;;;;;;;6.25;2.95;;;5.70;99.90;;;;;;15129817;23;20328;-36
2023/02/08 12:19:42;;;;;;;8.20;5.45;;;6.10;99.90;;;;;;15119822;23;20049;-36
2023/02/08 12:26:14;;;;;;;13.40;6.40;;;6.10;99.90;;;;;;15128212;23;20460;-37
2023/02/08 12:32:22;;;;;;;10.13;6.50;;;6.00;99.90;;;;;;15115499;23;20026;-36
2023/02/08 12:45:42;;;;;;;11.20;6.75;;;5.90;99.90;;;;;;15129551;23;20037;-37
2023/02/08 12:52:02;;;;;;;9.65;6.00;;;5.60;99.90;;;;;;15128691;23;20090;-37
2023/02/08 12:58:12;;;;;;;11.35;6.60;;;5.60;99.90;;;;;;15122735;23;20029;-37
2023/02/08 13:04:21;;;;;;;12.63;6.10;;;5.70;99.90;;;;;;15123667;23;20031;-37
2023/02/08 13:10:32;;;;;;;9.77;5.25;;;5.70;99.90;;;;;;15128045;23;20463;-37
2023/02/08 13:16:44;;;;;;;10.20;5.40;;;5.90;99.90;;;;;;15122206;23;20022;-37
2023/02/08 13:22:48;;;;;;;7.07;3.80;;;5.60;99.90;;;;;;15121022;23;20368;-37
2023/02/08 13:28:55;;;;;;;4.57;2.58;;;5.70;99.90;;;;;;15122363;23;20158;-37
2023/02/08 13:35:23;;;;;;;4.13;1.88;;;5.90;99.90;;;;;;15104769;23;20109;-37
2023/02/08 13:41:27;;;;;;;6.53;1.60;;;5.90;99.90;;;;;;15100510;23;20456;-37
2023/02/08 13:47:33;;;;;;;3.53;1.30;;;6.00;99.90;;;;;;15097280;23;20716;-37
2023/02/08 13:53:38;;;;;;;4.05;1.20;;;5.90;99.90;;;;;;15125569;23;20344;-37
2023/02/08 13:59:41;;;;;;;3.58;1.48;;;5.80;99.90;;;;;;15126735;23;20026;-36
2023/02/08 14:05:57;;;;;;;5.47;1.73;;;5.70;99.90;;;;;;15127554;23;20031;-37
2023/02/08 14:12:24;;;;;;;5.30;1.85;;;5.60;99.90;;;;;;15125146;23;20034;-36
2023/02/08 14:18:27;;;;;;;4.60;2.13;;;5.60;99.90;;;;;;15073657;23;20030;-37
2023/02/08 14:24:39;;;;;;;4.55;1.60;;;5.30;99.90;;;;;;15124404;23;20031;-37
2023/02/08 14:30:43;;;;;;;3.35;1.60;;;5.30;99.90;;;;;;15121872;23;20092;-36
2023/02/08 14:36:46;;;;;;;5.65;2.47;;;5.20;99.90;;;;;;15125357;23;20033;-37
2023/02/08 14:42:58;;;;;;;5.13;2.50;;;5.20;99.90;;;;;;15126471;23;20025;-36
2023/02/08 14:49:02;;;;;;;7.25;2.55;;;5.10;99.90;;;;;;15121990;23;20033;-36
2023/02/08 14:55:11;;;;;;;5.05;2.53;;;4.90;99.90;;;;;;15128239;23;20078;-37
2023/02/08 15:01:17;;;;;;;6.28;2.90;;;4.80;99.90;;;;;;15121838;23;20022;-37
2023/02/08 15:07:41;;;;;;;7.47;3.22;;;4.70;99.90;;;;;;15099684;23;20026;-37
2023/02/08 15:13:49;;;;;;;6.27;3.40;;;4.60;99.90;;;;;;15126479;23;20022;-37
2023/02/08 15:19:52;;;;;;;6.72;3.60;;;4.50;99.90;;;;;;15122293;23;20258;-37
2023/02/08 15:26:17;;;;;;;7.05;3.30;;;4.40;99.90;;;;;;15126846;23;20023;-37
2023/02/08 15:32:23;;;;;;;6.82;3.58;;;4.40;99.90;;;;;;15122790;23;20027;-36
2023/02/08 15:38:25;;;;;;;;;;;4.20;99.90;;;;;;15125700;23;20133;-36
2023/02/08 15:44:33;;;;;;;5.55;3.40;;;4.00;99.90;;;;;;15105473;23;20000;-37
2023/02/08 15:50:35;;;;;;;7.30;3.95;;;3.90;99.90;;;;;;15128452;23;20026;-37
2023/02/08 15:56:38;;;;;;;8.07;4.10;;;3.70;99.90;;;;;;15130281;23;20026;-37
2023/02/08 16:02:43;;;;;;;7.60;3.88;;;3.70;99.90;;;;;;15129500;23;20029;-36
2023/02/08 16:08:50;;;;;;;9.50;4.13;;;3.80;99.90;;;;;;15128715;23;20384;-36
2023/02/08 16:14:55;;;;;;;9.70;4.30;;;3.70;99.90;;;;;;15124054;23;20030;-36
2023/02/08 16:20:59;;;;;;;8.13;4.60;;;3.40;99.90;;;;;;15123486;23;20022;-37
2023/02/08 16:27:04;;;;;;;8.80;4.40;;;3.20;99.90;;;;;;15125199;23;20374;-37
2023/02/08 16:33:07;;;;;;;7.38;3.85;;;2.90;99.90;;;;;;15101406;23;20045;-36
2023/02/08 16:39:15;;;;;;;8.07;3.28;;;2.70;99.90;;;;;;15125121;23;20058;-36
2023/02/08 16:45:19;;;;;;;10.82;4.93;;;2.40;99.90;;;;;;15124620;23;20034;-36
2023/02/08 16:51:25;;;;;;;16.15;7.25;;;2.00;99.90;;;;;;15126906;23;20023;-36
2023/02/08 16:57:56;;;;;;;10.80;5.00;;;1.90;99.90;;;;;;15105434;23;20366;-37
2023/02/08 17:03:58;;;;;;;18.35;12.20;;;1.80;99.90;;;;;;15127470;23;20363;-37
2023/02/08 17:10:00;;;;;;;8.55;6.20;;;1.90;99.90;;;;;;15127378;23;20295;-36
2023/02/08 17:16:02;;;;;;;9.40;4.25;;;1.90;99.90;;;;;;15123344;23;20469;-37
2023/02/08 17:22:04;;;;;;;8.73;3.85;;;1.70;99.90;;;;;;15125050;23;20027;-37
2023/02/08 17:28:15;;;;;;;10.75;4.07;;;1.50;99.90;;;;;;15128026;23;20097;-36
2023/02/08 17:34:17;;;;;;;14.15;6.03;;;1.40;99.90;;;;;;15126657;23;20033;-36
2023/02/08 17:40:21;;;;;;;12.75;6.85;;;1.50;99.90;;;;;;15119773;23;20026;-36
2023/02/08 17:46:25;;;;;;;9.27;4.85;;;1.50;99.90;;;;;;15128469;23;20026;-36
2023/02/08 17:52:27;;;;;;;9.05;4.15;;;1.30;99.90;;;;;;15120683;23;20371;-37
2023/02/08 17:58:30;;;;;;;10.88;5.97;;;1.40;99.90;;;;;;15128580;23;20109;-36
2023/02/08 18:04:32;;;;;;;12.10;4.65;;;1.60;99.90;;;;;;15124634;23;20034;-36
2023/02/08 18:10:34;;;;;;;12.60;6.35;;;1.30;99.90;;;;;;15125183;23;20078;-36
2023/02/08 18:16:36;;;;;;;9.15;4.68;;;1.40;99.90;;;;;;15102248;23;20089;-36
2023/02/08 18:22:38;;;;;;;11.68;4.03;;;1.50;99.90;;;;;;15121244;23;20037;-37
2023/02/08 18:28:40;;;;;;;8.00;4.32;;;1.80;99.90;;;;;;15125307;23;20026;-36
2023/02/08 18:34:45;;;;;;;9.27;3.92;;;2.00;99.90;;;;;;15125013;23;20029;-36
2023/02/08 18:40:47;;;;;;;9.98;4.40;;;2.30;99.90;;;;;;15125107;23;20165;-36
2023/02/08 18:46:49;;;;;;;11.13;4.30;;;2.40;99.90;;;;;;15128698;23;20026;-36
2023/02/08 18:52:51;;;;;;;11.85;4.80;;;2.40;99.90;;;;;;15098714;23;20029;-35
2023/02/08 18:58:56;;;;;;;12.10;6.15;;;2.30;99.90;;;;;;15124839;23;20097;-36
2023/02/08 19:04:58;;;;;;;13.00;5.80;;;2.30;99.90;;;;;;15094685;23;20109;-36
2023/02/08 19:11:00;;;;;;;14.60;6.85;;;2.10;99.90;;;;;;15123903;23;20033;-36
2023/02/08 19:17:02;;;;;;;15.75;6.40;;;2.00;99.90;;;;;;15124809;23;20101;-36
2023/02/08 19:23:04;;;;;;;15.57;6.45;;;1.90;99.90;;;;;;15125524;23;20083;-36
2023/02/08 19:29:13;;;;;;;13.68;7.18;;;1.70;99.90;;;;;;15124134;23;20028;-36
2023/02/08 19:35:15;;;;;;;13.57;6.93;;;1.70;99.90;;;;;;15123786;23;20030;-36
2023/02/08 19:41:21;;;;;;;15.15;7.00;;;1.60;99.90;;;;;;15125041;23;20019;-35
2023/02/08 19:47:24;;;;;;;11.55;5.97;;;1.50;99.90;;;;;;15126102;23;20451;-36
2023/02/08 19:53:46;;;;;;;13.00;6.05;;;1.50;99.90;;;;;;15124820;23;20113;-36
2023/02/08 19:59:48;;;;;;;12.13;5.63;;;1.40;99.90;;;;;;15096403;23;20022;-36
2023/02/08 20:05:53;;;;;;;14.63;6.00;;;1.40;99.90;;;;;;15122074;23;20101;-36
2023/02/08 20:11:55;;;;;;;;;;;1.40;99.90;;;;;;15127924;23;20145;-36
2023/02/08 20:18:00;;;;;;;12.38;5.60;;;1.30;99.90;;;;;;15124192;23;19924;-36
2023/02/08 20:24:03;;;;;;;15.20;6.83;;;1.00;99.90;;;;;;15118004;23;20097;-36
2023/02/08 20:30:05;;;;;;;13.50;6.55;;;0.80;99.90;;;;;;15117665;23;20974;-36
2023/02/08 20:36:13;;;;;;;12.73;6.55;;;0.70;99.90;;;;;;15095425;23;20097;-35
2023/02/08 20:42:15;;;;;;;15.70;6.38;;;0.60;99.90;;;;;;15130042;23;20380;-36
2023/02/08 20:48:17;;;;;;;15.00;6.20;;;0.50;99.90;;;;;;15130750;23;20409;-36
2023/02/08 20:54:23;;;;;;;13.10;5.75;;;0.40;99.90;;;;;;15124331;23;20490;-36
2023/02/08 21:00:25;;;;;;;12.20;5.78;;;0.60;99.90;;;;;;15127616;23;20022;-36
2023/02/08 21:06:47;;;;;;;12.18;5.35;;;0.70;99.90;;;;;;15124478;23;20023;-36
2023/02/08 21:12:49;;;;;;;12.63;5.43;;;0.40;99.90;;;;;;15103064;23;20030;-36
2023/02/08 21:18:51;;;;;;;14.77;7.00;;;0.20;99.90;;;;;;15131071;23;20501;-35
2023/02/08 21:24:53;;;;;;;16.63;7.38;;;0.10;99.90;;;;;;15126779;23;20030;-37
2023/02/08 21:31:02;;;;;;;14.82;6.75;;;0.00;99.90;;;;;;15122308;23;20097;-37
2023/02/08 21:37:04;;;;;;;22.38;10.73;;;-0.10;99.90;;;;;;15125896;23;20022;-37
2023/02/08 21:43:06;;;;;;;39.17;17.63;;;-0.30;99.90;;;;;;15129544;23;20097;-37
2023/02/08 21:55:30;;;;;;;20.50;9.85;;;-0.40;99.90;;;;;;15116808;23;20369;-36
2023/02/08 22:01:32;;;;;;;16.00;7.45;;;-0.40;99.90;;;;;;15122795;23;20105;-36
2023/02/08 22:07:46;;;;;;;15.57;6.78;;;-0.50;99.90;;;;;;15124345;23;20026;-37
2023/02/08 22:13:48;;;;;;;13.60;6.90;;;-0.50;99.90;;;;;;15124769;23;20149;-37
2023/02/08 22:19:50;;;;;;;12.88;5.88;;;-0.60;99.90;;;;;;15126162;23;20146;-37
2023/02/08 22:25:52;;;;;;;15.35;6.18;;;-0.50;99.90;;;;;;15095656;23;20097;-37
2023/02/08 22:31:53;;;;;;;12.27;6.15;;;-0.40;99.90;;;;;;15123006;23;20347;-37
2023/02/08 22:37:56;;;;;;;11.43;5.95;;;-0.30;99.90;;;;;;15117527;23;20018;-37
2023/02/08 22:43:58;;;;;;;11.10;5.32;;;0.00;99.90;;;;;;15124696;23;20026;-36
2023/02/08 22:50:00;;;;;;;11.43;5.47;;;0.20;99.90;;;;;;15127716;23;20451;-37
2023/02/08 22:56:02;;;;;;;10.40;5.18;;;0.30;99.90;;;;;;15123067;23;20050;-37
2023/02/08 23:02:04;;;;;;;12.73;5.38;;;0.40;99.90;;;;;;15128253;23;20018;-37
2023/02/08 23:08:06;;;;;;;10.93;4.90;;;0.40;99.90;;;;;;15126260;23;20034;-37
2023/02/08 23:14:08;;;;;;;10.05;5.10;;;0.40;99.90;;;;;;15123822;23;20378;-36
2023/02/08 23:20:10;;;;;;;10.55;4.85;;;0.30;99.90;;;;;;15103432;23;20057;-37
2023/02/08 23:26:16;;;;;;;10.65;4.90;;;0.30;99.90;;;;;;15126403;23;20034;-37
2023/02/08 23:32:18;;;;;;;9.07;4.70;;;0.30;99.90;;;;;;15096237;23;20054;-37
2023/02/08 23:38:20;;;;;;;13.73;5.90;;;0.10;99.90;;;;;;15126502;23;20018;-37
2023/02/08 23:44:23;;;;;;;11.45;5.50;;;0.00;99.90;;;;;;15122993;23;20053;-36
2023/02/08 23:50:25;;;;;;;12.25;6.13;;;-0.10;99.90;;;;;;15127734;23;20526;-36
2023/02/08 23:56:30;;;;;;;13.52;6.68;;;-0.20;99.90;;;;;;15123327;23;20061;-37
